Portada
METAR-TAF:

METAR-TAF

Aeropuertos :

Menorca, España

Aeropuerto de Menorca

latitud: 39-52N, longitud: 004-14E, altitud: 87 m

Observación

El informe se hizo hace 20 minutos, a las 21:30 UTC
Viento 6 kt del sur-sureste
Temperatura 13°C
Humedad 88%
Presión 1017 hPa
Visibilidad 10 km o más

METAR: LEMH 222130Z AUTO 16006KT 9999 NCD 13/11 Q1017

Hora: 22:50 (21:50 UTC)

Pronóstico

El informe se hizo hace 1 hora y 50 minutos, a las 20:00 UTC
Pronóstico válido del 22 a las 21 UTC al 23 a las 21 UTC
Viento 9 kt del sur
Visibilidad 10 km o más
Escasas nubes a una altura de 2000 ft
Probabilidad 30% :
Temporalmente
del 22 a las 21 UTC al 23 a las 07 UTC
Cielo nuboso a una altura de 1400 ft

TAF: LEMH 222000Z 2221/2321 18009KT 9999 FEW020 TX20/2312Z TN09/2306Z PROB30 TEMPO 2221/2307 BKN014

Observaciones y pronósticos meteorológicos de más de 4000 aeropuertos (mensajes METAR y TAF).

Los puntos amarillos y rojos representan las estaciones disponibles.

Ponga el ratón en el punto deseado para ver el nombre de la estación.

Haga clic para ver las observaciones y los pronósticos meteorológicos.

Para cambiar el mapa : haga clic en los botones verdes con una cruz de color negro para hacer un zoom, en el botón verde con un guión para alejar o en las flechas verdes para mapas adyacentes.


METAR-TAF: